createdAt,value
2023-03-13T00:02:22.531Z,4.60
2023-03-13T00:08:15.669Z,6.30
2023-03-13T00:10:45.449Z,2.80
2023-03-13T00:13:14.739Z,9.00
2023-03-13T00:18:14.514Z,3.30
2023-03-13T00:20:42.742Z,3.00
2023-03-13T00:23:16.797Z,3.30
2023-03-13T00:25:45.803Z,4.70
2023-03-13T00:28:14.106Z,3.20
2023-03-13T00:30:46.042Z,2.80
2023-03-13T00:33:14.321Z,6.60
2023-03-13T00:35:42.981Z,3.70
2023-03-13T00:38:11.368Z,4.80
2023-03-13T00:40:40.066Z,3.00
2023-03-13T00:43:09.276Z,5.70
2023-03-13T00:45:37.836Z,2.70
2023-03-13T00:48:06.441Z,5.10
2023-03-13T00:50:36.064Z,2.40
2023-03-13T00:53:04.419Z,4.50
2023-03-13T00:55:32.785Z,5.60
2023-03-13T00:58:01.622Z,4.40
2023-03-13T01:00:30.051Z,2.00
2023-03-13T01:03:00.413Z,6.90
2023-03-13T01:05:28.810Z,3.60
2023-03-13T01:07:57.104Z,3.90
2023-03-13T01:10:27.155Z,4.80
2023-03-13T01:12:56.645Z,3.40
2023-03-13T01:15:26.280Z,3.50
2023-03-13T01:17:55.277Z,3.30
2023-03-13T01:20:26.182Z,4.00
2023-03-13T01:22:54.877Z,3.90
2023-03-13T01:25:24.962Z,4.50
2023-03-13T01:27:54.887Z,5.70
2023-03-13T01:30:23.707Z,3.90
2023-03-13T01:32:55.132Z,3.80
2023-03-13T01:35:26.898Z,3.20
2023-03-13T01:37:56.850Z,3.60
2023-03-13T01:40:25.066Z,4.00
2023-03-13T01:42:58.888Z,3.50
2023-03-13T01:45:52.878Z,4.90
2023-03-13T01:48:34.815Z,4.70
2023-03-13T01:51:06.788Z,5.20
2023-03-13T01:53:35.667Z,4.90
2023-03-13T01:56:06.232Z,4.30
2023-03-13T01:58:36.015Z,3.00
2023-03-13T02:01:04.361Z,5.40
2023-03-13T02:03:39.863Z,3.40
2023-03-13T02:06:08.663Z,3.10
2023-03-13T02:08:50.926Z,3.40
2023-03-13T02:12:01.472Z,2.90
2023-03-13T02:14:31.045Z,3.50
2023-03-13T02:16:59.768Z,4.70
2023-03-13T02:19:46.072Z,3.60
2023-03-13T02:22:14.735Z,4.10
2023-03-13T02:25:14.415Z,3.90
2023-03-13T02:27:43.310Z,4.70
2023-03-13T02:30:13.710Z,3.40
2023-03-13T02:32:43.079Z,4.20
2023-03-13T02:35:19.005Z,6.00
2023-03-13T02:40:24.870Z,4.40
2023-03-13T02:42:58.741Z,3.60
2023-03-13T02:45:28.307Z,3.60
2023-03-13T02:47:56.612Z,5.90
2023-03-13T02:50:25.764Z,5.10
2023-03-13T02:53:00.471Z,4.30
2023-03-13T02:55:35.899Z,5.40
2023-03-13T02:58:04.708Z,4.40
2023-03-13T03:00:36.734Z,4.10
2023-03-13T03:03:05.241Z,4.90
2023-03-13T03:05:33.766Z,5.20
2023-03-13T03:08:02.532Z,4.20
2023-03-13T03:10:31.124Z,5.40
2023-03-13T03:13:00.996Z,4.20
2023-03-13T03:15:29.734Z,4.00
2023-03-13T03:17:58.547Z,5.50
2023-03-13T03:20:26.792Z,3.60
2023-03-13T03:22:55.120Z,5.10
2023-03-13T03:25:25.190Z,5.20
2023-03-13T03:27:55.125Z,4.30
2023-03-13T03:30:23.708Z,5.50
2023-03-13T03:32:53.049Z,3.10
2023-03-13T03:35:22.419Z,4.10
2023-03-13T03:37:51.630Z,6.40
2023-03-13T03:40:21.593Z,4.10
2023-03-13T03:42:52.767Z,3.30
2023-03-13T03:45:41.084Z,4.00
2023-03-13T03:48:10.568Z,4.50
2023-03-13T03:50:39.076Z,6.60
2023-03-13T03:53:13.902Z,5.50
2023-03-13T03:55:42.468Z,7.40
2023-03-13T03:58:10.805Z,5.10
2023-03-13T04:01:01.714Z,7.10
2023-03-13T04:03:30.573Z,5.40
2023-03-13T04:05:59.103Z,5.10
2023-03-13T04:08:27.688Z,3.90
2023-03-13T04:10:57.183Z,7.10
2023-03-13T04:13:29.171Z,9.00
2023-03-13T04:16:06.278Z,7.90
2023-03-13T04:18:38.285Z,9.10
2023-03-13T04:21:06.939Z,9.90
2023-03-13T04:23:51.604Z,10.20
2023-03-13T04:26:20.159Z,12.70
2023-03-13T04:28:51.088Z,11.80
2023-03-13T04:31:24.871Z,13.90
2023-03-13T04:34:09.495Z,19.00
2023-03-13T04:37:02.095Z,14.30
2023-03-13T04:39:54.123Z,12.00
2023-03-13T04:42:42.846Z,18.30
2023-03-13T04:45:34.215Z,13.60
2023-03-13T04:48:32.761Z,13.20
2023-03-13T04:51:33.932Z,14.70
2023-03-13T04:54:26.094Z,11.30
2023-03-13T04:57:27.011Z,12.00
2023-03-13T05:00:32.396Z,11.50
2023-03-13T05:03:16.334Z,12.10
2023-03-13T05:05:55.267Z,16.20
2023-03-13T05:08:46.982Z,12.10
2023-03-13T05:11:21.525Z,11.70
2023-03-13T05:14:20.029Z,11.90
2023-03-13T05:16:58.463Z,18.60
2023-03-13T05:19:32.532Z,14.10
2023-03-13T05:22:19.258Z,11.50
2023-03-13T05:25:07.781Z,10.70
2023-03-13T05:27:56.259Z,13.10
2023-03-13T05:30:45.222Z,11.30
2023-03-13T05:33:47.676Z,12.80
2023-03-13T05:36:41.386Z,16.80
2023-03-13T05:39:41.132Z,13.70
2023-03-13T05:42:47.536Z,15.20
2023-03-13T05:45:32.605Z,13.80
2023-03-13T05:48:16.217Z,15.60
2023-03-13T05:51:05.352Z,12.00
2023-03-13T05:53:52.059Z,13.80
2023-03-13T05:56:40.299Z,28.00
2023-03-13T05:59:27.283Z,15.00
2023-03-13T06:02:13.895Z,16.10
2023-03-13T06:04:44.086Z,17.70
2023-03-13T06:07:12.765Z,13.30
2023-03-13T06:09:43.339Z,15.80
2023-03-13T06:12:12.376Z,12.40
2023-03-13T06:14:40.795Z,12.80
2023-03-13T06:17:27.912Z,17.00
2023-03-13T06:19:56.805Z,13.10
2023-03-13T06:22:25.863Z,12.40
2023-03-13T06:24:54.674Z,13.70
2023-03-13T06:27:22.971Z,12.60
2023-03-13T06:29:53.073Z,12.00
2023-03-13T06:32:21.650Z,12.90
2023-03-13T06:34:54.435Z,12.20
2023-03-13T06:37:23.591Z,12.50
2023-03-13T06:39:51.717Z,11.40
2023-03-13T06:42:20.141Z,11.70
2023-03-13T06:44:48.366Z,14.50
2023-03-13T06:47:16.655Z,12.90
2023-03-13T06:49:45.959Z,14.10
2023-03-13T06:52:20.279Z,15.70
2023-03-13T06:54:48.771Z,15.70
2023-03-13T06:57:16.931Z,14.70
2023-03-13T06:59:45.161Z,13.20
2023-03-13T07:02:13.310Z,13.50
2023-03-13T07:04:46.751Z,16.00
2023-03-13T07:07:25.756Z,13.90
2023-03-13T07:09:57.831Z,16.90
2023-03-13T07:12:29.506Z,15.40
2023-03-13T07:14:57.723Z,16.60
2023-03-13T07:17:25.928Z,14.70
2023-03-13T07:19:56.531Z,13.70
2023-03-13T07:22:24.846Z,12.50
2023-03-13T07:24:56.183Z,14.70
2023-03-13T07:27:24.866Z,12.40
2023-03-13T07:29:53.122Z,9.30
2023-03-13T07:32:21.481Z,10.80
2023-03-13T07:34:49.830Z,14.50
2023-03-13T07:37:18.837Z,12.80
2023-03-13T07:39:47.140Z,9.50
2023-03-13T07:42:16.500Z,12.20
2023-03-13T07:44:45.560Z,11.80
2023-03-13T07:47:13.705Z,7.90
2023-03-13T07:49:44.319Z,7.10
2023-03-13T07:52:13.030Z,11.40
2023-03-13T07:54:42.915Z,12.00
2023-03-13T07:57:11.505Z,8.10
2023-03-13T07:59:39.731Z,10.30
2023-03-13T08:02:09.876Z,9.10
2023-03-13T08:04:38.368Z,11.00
2023-03-13T08:07:11.325Z,10.80
2023-03-13T08:09:41.580Z,12.70
2023-03-13T08:12:11.135Z,10.90
2023-03-13T08:14:48.570Z,10.60
2023-03-13T08:17:16.760Z,13.10
2023-03-13T08:19:46.012Z,12.40
2023-03-13T08:22:14.937Z,14.20
2023-03-13T08:24:43.234Z,14.20
2023-03-13T08:27:13.311Z,11.40
2023-03-13T08:29:41.661Z,13.40
2023-03-13T08:32:11.758Z,11.60
2023-03-13T08:34:39.877Z,15.00
2023-03-13T08:37:08.258Z,14.10
2023-03-13T08:39:37.530Z,14.50
2023-03-13T08:42:06.851Z,11.50
2023-03-13T08:44:35.308Z,8.60
2023-03-13T08:47:06.282Z,13.70
2023-03-13T08:49:34.602Z,18.50
2023-03-13T08:52:05.624Z,9.90
2023-03-13T08:54:34.081Z,10.80
2023-03-13T08:57:02.409Z,15.00
2023-03-13T08:59:31.120Z,10.50
2023-03-13T09:02:03.413Z,12.20
2023-03-13T09:04:31.809Z,10.30
2023-03-13T09:07:00.111Z,12.80
2023-03-13T09:09:30.318Z,12.00
2023-03-13T09:11:58.611Z,10.60
2023-03-13T09:14:27.927Z,11.10
2023-03-13T09:16:56.621Z,11.20
2023-03-13T09:19:25.238Z,10.80
2023-03-13T09:21:59.353Z,11.20
2023-03-13T09:24:27.748Z,11.60
2023-03-13T09:27:01.451Z,7.20
2023-03-13T09:29:31.382Z,10.10
2023-03-13T09:31:59.817Z,11.10
2023-03-13T09:34:28.439Z,12.30
2023-03-13T09:36:56.554Z,7.40
2023-03-13T09:39:27.497Z,11.60
2023-03-13T09:42:35.108Z,10.00
2023-03-13T09:45:07.015Z,11.00
2023-03-13T09:50:31.669Z,11.00
2023-03-13T09:53:06.753Z,11.80
2023-03-13T09:55:35.468Z,12.80
2023-03-13T09:58:16.640Z,11.10
2023-03-13T10:00:48.415Z,12.60
2023-03-13T10:03:23.473Z,10.00
2023-03-13T10:05:54.414Z,8.80
2023-03-13T10:11:04.847Z,9.70
2023-03-13T10:13:33.414Z,21.10
2023-03-13T10:16:03.336Z,16.10
2023-03-13T10:18:31.873Z,11.40
2023-03-13T10:21:03.372Z,9.10
2023-03-13T10:23:46.895Z,9.80
2023-03-13T10:26:21.765Z,9.80
2023-03-13T10:28:50.909Z,13.20
2023-03-13T10:31:36.699Z,12.30
2023-03-13T10:34:09.847Z,9.30
2023-03-13T10:36:49.824Z,8.50
2023-03-13T10:39:25.194Z,12.70
2023-03-13T10:42:09.171Z,9.70
2023-03-13T10:44:37.475Z,8.80
2023-03-13T10:47:06.126Z,10.00
2023-03-13T10:49:34.700Z,8.20
2023-03-13T10:52:04.912Z,7.90
2023-03-13T10:54:37.537Z,7.40
2023-03-13T10:57:26.198Z,14.30
2023-03-13T10:59:54.516Z,17.90
2023-03-13T11:02:34.074Z,17.90
2023-03-13T11:05:38.117Z,10.20
2023-03-13T11:08:35.892Z,14.60
2023-03-13T11:11:06.090Z,10.30
2023-03-13T11:13:41.222Z,11.10
2023-03-13T11:16:29.488Z,12.80
2023-03-13T11:19:08.043Z,11.50
2023-03-13T11:21:45.658Z,12.40
2023-03-13T11:24:18.970Z,9.60
2023-03-13T11:27:04.650Z,9.60
2023-03-13T11:30:12.835Z,11.70
2023-03-13T11:32:52.317Z,10.80
2023-03-13T11:35:34.606Z,11.10
2023-03-13T11:38:20.241Z,12.50
2023-03-13T11:41:11.730Z,14.10
2023-03-13T11:43:45.458Z,8.50
2023-03-13T11:46:28.923Z,11.90
2023-03-13T11:49:28.980Z,8.80
2023-03-13T11:52:14.261Z,14.10
2023-03-13T11:55:24.314Z,12.20
2023-03-13T11:58:21.459Z,9.90
2023-03-13T12:01:03.068Z,7.40
2023-03-13T12:03:55.272Z,11.70
2023-03-13T12:06:31.668Z,11.20
2023-03-13T12:09:08.359Z,7.80
2023-03-13T12:11:43.879Z,7.70
2023-03-13T12:14:22.588Z,9.20
2023-03-13T12:16:57.255Z,10.30
2023-03-13T12:19:48.750Z,7.60
2023-03-13T12:22:34.302Z,8.80
2023-03-13T12:25:40.108Z,9.50
2023-03-13T12:28:29.416Z,9.20
2023-03-13T12:31:19.266Z,7.80
2023-03-13T12:34:12.104Z,9.10
2023-03-13T12:36:53.152Z,6.00
2023-03-13T12:39:21.361Z,7.40
2023-03-13T12:42:20.378Z,7.50
2023-03-13T12:44:49.399Z,6.70
2023-03-13T12:47:55.321Z,7.30
2023-03-13T12:50:30.123Z,8.90
2023-03-13T12:53:10.402Z,10.10
2023-03-13T12:56:10.867Z,6.90
2023-03-13T12:58:55.697Z,8.70
2023-03-13T13:01:44.603Z,12.70
2023-03-13T13:04:13.747Z,9.60
2023-03-13T13:06:51.821Z,7.60
2023-03-13T13:09:25.738Z,8.80
2023-03-13T13:12:01.171Z,6.40
2023-03-13T13:14:29.405Z,7.20
2023-03-13T13:17:11.713Z,7.50
2023-03-13T13:19:40.162Z,10.60
2023-03-13T13:22:39.695Z,8.50
2023-03-13T13:25:08.388Z,7.30
2023-03-13T13:27:36.557Z,7.10
2023-03-13T13:30:25.982Z,8.00
2023-03-13T13:33:18.924Z,5.90
2023-03-13T13:35:48.195Z,9.90
2023-03-13T13:38:19.573Z,7.20
2023-03-13T13:41:09.069Z,7.90
2023-03-13T13:43:45.502Z,9.40
2023-03-13T13:46:24.812Z,6.20
2023-03-13T13:49:07.903Z,6.20
2023-03-13T13:51:38.042Z,6.40
2023-03-13T13:54:12.943Z,4.30
2023-03-13T13:56:47.309Z,9.10
2023-03-13T13:59:21.349Z,7.50
2023-03-13T14:02:07.845Z,6.00
2023-03-13T14:04:39.378Z,8.00
2023-03-13T14:07:07.910Z,5.50
2023-03-13T14:10:05.488Z,6.90
2023-03-13T14:12:38.497Z,6.50
2023-03-13T14:15:17.296Z,9.20
2023-03-13T14:17:55.259Z,7.10
2023-03-13T14:20:32.677Z,6.90
2023-03-13T14:23:08.077Z,8.90
2023-03-13T14:25:50.112Z,7.90
2023-03-13T14:28:27.904Z,8.20
2023-03-13T14:30:57.109Z,7.00
2023-03-13T14:33:27.040Z,11.30
2023-03-13T14:35:57.927Z,9.30
2023-03-13T14:38:30.122Z,7.30
2023-03-13T14:43:37.115Z,6.70
2023-03-13T14:46:26.794Z,8.20
2023-03-13T14:48:56.146Z,8.60
2023-03-13T14:51:26.059Z,8.00
2023-03-13T14:53:56.634Z,10.10
2023-03-13T14:56:38.109Z,9.50
2023-03-13T14:59:16.611Z,10.90
2023-03-13T15:01:45.900Z,8.40
2023-03-13T15:04:14.160Z,12.40
2023-03-13T15:06:44.216Z,10.20
2023-03-13T15:09:22.699Z,8.30
2023-03-13T15:11:56.694Z,9.40
2023-03-13T15:14:33.980Z,9.40
2023-03-13T15:17:16.220Z,6.50
2023-03-13T15:19:48.485Z,7.90
2023-03-13T15:22:16.996Z,7.50
2023-03-13T15:24:56.114Z,10.00
2023-03-13T15:27:33.758Z,10.40
2023-03-13T15:30:02.002Z,10.00
2023-03-13T15:32:33.213Z,8.80
2023-03-13T15:35:02.249Z,7.50
2023-03-13T15:37:30.926Z,5.90
2023-03-13T15:39:59.355Z,5.90
2023-03-13T15:42:33.353Z,8.50
2023-03-13T15:45:01.700Z,10.40
2023-03-13T15:47:30.651Z,10.60
2023-03-13T15:49:59.087Z,8.20
2023-03-13T15:52:28.496Z,7.20
2023-03-13T15:57:27.910Z,8.90
2023-03-13T15:59:56.031Z,7.90
2023-03-13T16:02:24.305Z,7.40
2023-03-13T16:04:52.778Z,8.30
2023-03-13T16:07:21.306Z,8.80
2023-03-13T16:09:50.713Z,9.10
2023-03-13T16:12:22.606Z,9.40
2023-03-13T16:14:56.539Z,7.80
2023-03-13T16:17:28.295Z,10.40
2023-03-13T16:20:10.701Z,9.70
2023-03-13T16:22:38.958Z,6.70
2023-03-13T16:25:07.777Z,9.00
2023-03-13T16:27:36.296Z,9.80
2023-03-13T16:30:07.233Z,8.50
2023-03-13T16:32:41.500Z,10.20
2023-03-13T16:35:10.165Z,8.40
2023-03-13T16:37:38.449Z,8.10
2023-03-13T16:40:19.047Z,7.10
2023-03-13T16:42:47.204Z,7.40
2023-03-13T16:45:15.991Z,7.20
2023-03-13T16:47:45.678Z,8.40
2023-03-13T16:50:34.173Z,6.90
2023-03-13T16:53:02.500Z,8.10
2023-03-13T16:55:36.460Z,6.50
2023-03-13T16:58:05.097Z,8.00
2023-03-13T17:00:33.686Z,9.30
2023-03-13T17:03:01.867Z,7.20
2023-03-13T17:05:30.529Z,7.50
2023-03-13T17:07:58.657Z,8.30
2023-03-13T17:10:28.524Z,6.60
2023-03-13T17:12:56.694Z,8.80
2023-03-13T17:15:26.402Z,7.10
2023-03-13T17:17:56.156Z,8.20
2023-03-13T17:20:26.982Z,7.90
2023-03-13T17:22:58.244Z,11.10
2023-03-13T17:25:26.542Z,9.40
2023-03-13T17:27:56.270Z,8.80
2023-03-13T17:30:30.266Z,12.20
2023-03-13T17:32:59.253Z,7.20
2023-03-13T17:35:27.816Z,8.30
2023-03-13T17:37:56.133Z,7.80
2023-03-13T17:40:28.185Z,9.60
2023-03-13T17:42:57.422Z,13.60
2023-03-13T17:45:25.721Z,8.40
2023-03-13T17:47:54.626Z,7.10
2023-03-13T17:50:27.410Z,8.10
2023-03-13T17:52:59.052Z,9.10
2023-03-13T17:55:27.316Z,8.60
2023-03-13T17:57:55.657Z,9.10
2023-03-13T18:00:25.977Z,9.50
2023-03-13T18:02:54.405Z,6.60
2023-03-13T18:05:23.194Z,8.10
2023-03-13T18:07:54.702Z,6.20
2023-03-13T18:10:27.793Z,10.30
2023-03-13T18:12:59.731Z,7.90
2023-03-13T18:15:28.259Z,11.60
2023-03-13T18:18:03.341Z,12.20
2023-03-13T18:20:32.546Z,8.30
2023-03-13T18:23:01.277Z,10.20
2023-03-13T18:25:32.398Z,11.80
2023-03-13T18:28:01.414Z,8.40
2023-03-13T18:30:29.843Z,9.40
2023-03-13T18:32:58.051Z,13.80
2023-03-13T18:35:26.575Z,10.20
2023-03-13T18:37:56.312Z,9.50
2023-03-13T18:40:26.674Z,9.10
2023-03-13T18:42:58.713Z,15.70
2023-03-13T18:45:28.376Z,10.30
2023-03-13T18:47:56.507Z,11.50
2023-03-13T18:50:30.073Z,11.70
2023-03-13T18:52:59.626Z,7.70
2023-03-13T18:55:28.972Z,11.40
2023-03-13T18:57:57.461Z,9.50
2023-03-13T19:00:27.509Z,10.70
2023-03-13T19:02:55.791Z,12.90
2023-03-13T19:05:24.257Z,10.40
2023-03-13T19:07:53.028Z,11.90
2023-03-13T19:10:24.385Z,11.20
2023-03-13T19:12:58.213Z,9.70
2023-03-13T19:15:28.215Z,8.60
2023-03-13T19:17:57.493Z,11.20
2023-03-13T19:20:25.627Z,11.40
2023-03-13T19:22:55.947Z,10.20
2023-03-13T19:25:24.728Z,8.40
2023-03-13T19:27:53.183Z,9.70
2023-03-13T19:30:22.833Z,9.00
2023-03-13T19:34:19.687Z,12.90
2023-03-13T19:36:48.834Z,9.60
2023-03-13T19:39:24.011Z,11.20
2023-03-13T19:41:52.934Z,12.30
2023-03-13T19:44:22.496Z,11.40
2023-03-13T19:46:52.013Z,9.80
2023-03-13T19:49:20.909Z,9.30
2023-03-13T19:51:49.945Z,9.60
2023-03-13T19:54:18.698Z,10.40
2023-03-13T19:56:48.891Z,9.80
2023-03-13T19:59:21.201Z,10.80
2023-03-13T20:01:49.520Z,9.00
2023-03-13T20:04:17.749Z,9.80
2023-03-13T20:06:46.129Z,9.80
2023-03-13T20:09:18.434Z,11.60
2023-03-13T20:11:46.681Z,8.60
2023-03-13T20:14:17.006Z,11.40
2023-03-13T20:16:49.014Z,9.80
2023-03-13T20:19:17.582Z,8.50
2023-03-13T20:21:46.728Z,8.60
2023-03-13T20:24:15.027Z,10.50
2023-03-13T20:26:43.173Z,11.10
2023-03-13T20:29:11.335Z,9.70
2023-03-13T20:31:40.001Z,11.00
2023-03-13T20:34:09.953Z,11.90
2023-03-13T20:36:39.075Z,8.00
2023-03-13T20:39:08.269Z,10.70
2023-03-13T20:41:37.705Z,8.50
2023-03-13T20:44:06.026Z,8.20
2023-03-13T20:46:35.354Z,12.50
2023-03-13T20:49:03.959Z,10.70
2023-03-13T20:51:37.995Z,12.40
2023-03-13T20:54:06.485Z,10.70
2023-03-13T20:56:34.652Z,12.30
2023-03-13T20:59:03.774Z,10.00
2023-03-13T21:01:32.493Z,8.50
2023-03-13T21:04:00.706Z,9.60
2023-03-13T21:06:30.413Z,8.30
2023-03-13T21:09:02.631Z,12.60
2023-03-13T21:11:30.845Z,8.20
2023-03-13T21:13:59.420Z,7.70
2023-03-13T21:16:33.123Z,10.00
2023-03-13T21:19:01.480Z,9.20
2023-03-13T21:21:29.992Z,10.30
2023-03-13T21:24:03.509Z,12.20
2023-03-13T21:26:32.596Z,9.70
2023-03-13T21:29:00.799Z,10.30
2023-03-13T21:31:29.913Z,11.90
2023-03-13T21:33:58.450Z,12.80
2023-03-13T21:36:26.864Z,9.50
2023-03-13T21:38:55.436Z,11.40
2023-03-13T21:41:24.504Z,10.00
2023-03-13T21:43:53.135Z,9.50
2023-03-13T21:46:22.769Z,10.30
2023-03-13T21:48:52.700Z,10.00
2023-03-13T21:51:21.003Z,8.70
2023-03-13T21:53:49.662Z,9.20
2023-03-13T21:56:18.396Z,10.30
2023-03-13T21:58:46.483Z,9.30
2023-03-13T22:01:14.861Z,9.60
2023-03-13T22:03:43.186Z,9.40
2023-03-13T22:06:15.276Z,11.30
2023-03-13T22:08:48.740Z,10.00
2023-03-13T22:11:21.742Z,8.60
2023-03-13T22:13:51.649Z,9.70
2023-03-13T22:16:21.185Z,9.80
2023-03-13T22:18:51.648Z,10.00
2023-03-13T22:21:20.301Z,11.90
2023-03-13T22:23:48.476Z,11.00
2023-03-13T22:26:16.938Z,8.80
2023-03-13T22:28:45.576Z,10.60
2023-03-13T22:31:15.745Z,10.90
2023-03-13T22:33:43.903Z,8.30
2023-03-13T22:36:12.867Z,10.70
2023-03-13T22:38:43.373Z,9.90
2023-03-13T22:41:13.080Z,7.70
2023-03-13T22:43:41.303Z,12.20
2023-03-13T22:46:10.976Z,8.40
2023-03-13T22:48:39.148Z,10.10
2023-03-13T22:51:09.150Z,11.20
2023-03-13T22:53:38.618Z,10.50
2023-03-13T22:56:07.519Z,8.50
2023-03-13T22:58:36.505Z,9.00
2023-03-13T23:01:17.424Z,9.20
2023-03-13T23:03:46.995Z,9.70
2023-03-13T23:06:16.993Z,7.70
2023-03-13T23:08:46.005Z,12.40
2023-03-13T23:11:14.701Z,10.80
2023-03-13T23:13:46.640Z,10.30
2023-03-13T23:16:16.531Z,7.90
2023-03-13T23:18:45.231Z,11.40
2023-03-13T23:21:16.441Z,12.10
2023-03-13T23:23:45.199Z,8.60
2023-03-13T23:26:14.513Z,7.70
2023-03-13T23:28:43.527Z,9.80
2023-03-13T23:31:16.168Z,8.90
2023-03-13T23:33:47.984Z,9.60
2023-03-13T23:36:17.698Z,8.70
2023-03-13T23:38:48.922Z,9.30
2023-03-13T23:41:17.032Z,9.40
2023-03-13T23:43:45.173Z,11.60
2023-03-13T23:46:22.464Z,8.00
2023-03-13T23:48:57.168Z,9.40
2023-03-13T23:51:25.471Z,10.60
2023-03-13T23:53:53.765Z,8.50
2023-03-13T23:56:22.191Z,9.60
2023-03-13T23:58:55.707Z,8.40
